createdAt,value
2023-05-19T00:02:05.751Z,11.08
2023-05-19T00:04:36.561Z,10.96
2023-05-19T00:07:08.427Z,11.18
2023-05-19T00:09:38.880Z,11.36
2023-05-19T00:12:13.476Z,11.41
2023-05-19T00:14:44.039Z,11.33
2023-05-19T00:17:14.575Z,11.39
2023-05-19T00:19:45.403Z,11.26
2023-05-19T00:22:15.220Z,11.11
2023-05-19T00:24:45.202Z,11.25
2023-05-19T00:27:17.594Z,11.12
2023-05-19T00:29:47.418Z,11.21
2023-05-19T00:32:17.356Z,11.17
2023-05-19T00:34:48.584Z,11.14
2023-05-19T00:37:18.389Z,10.87
2023-05-19T00:39:48.311Z,11.08
2023-05-19T00:42:21.227Z,11.10
2023-05-19T00:44:51.013Z,11.15
2023-05-19T00:47:20.884Z,10.99
2023-05-19T00:49:50.817Z,11.09
2023-05-19T00:52:20.810Z,10.93
2023-05-19T00:54:51.768Z,10.97
2023-05-19T00:57:24.776Z,10.74
2023-05-19T00:59:54.746Z,10.85
2023-05-19T01:02:24.752Z,10.86
2023-05-19T01:04:55.633Z,10.79
2023-05-19T01:07:25.668Z,10.74
2023-05-19T01:09:55.664Z,10.86
2023-05-19T01:12:29.377Z,10.82
2023-05-19T01:15:01.367Z,10.84
2023-05-19T01:17:40.508Z,10.82
2023-05-19T01:20:20.020Z,10.60
2023-05-19T01:23:21.668Z,10.52
2023-05-19T01:26:22.432Z,10.61
2023-05-19T01:29:37.781Z,10.52
2023-05-19T01:32:12.232Z,10.48
2023-05-19T01:34:46.357Z,10.23
2023-05-19T01:37:17.777Z,10.03
2023-05-19T01:39:51.195Z,10.26
2023-05-19T01:42:22.205Z,10.27
2023-05-19T01:44:52.664Z,10.34
2023-05-19T01:47:25.921Z,10.06
2023-05-19T01:49:55.769Z,10.26
2023-05-19T01:52:25.646Z,10.04
2023-05-19T01:54:55.486Z,10.26
2023-05-19T01:57:33.888Z,10.34
2023-05-19T02:00:13.861Z,10.12
2023-05-19T02:03:00.794Z,10.20
2023-05-19T02:05:38.395Z,10.24
2023-05-19T02:08:16.153Z,10.23
2023-05-19T02:10:51.550Z,10.19
2023-05-19T02:13:27.235Z,10.02
2023-05-19T02:16:02.647Z,9.97
2023-05-19T02:18:36.461Z,10.04
2023-05-19T02:21:06.441Z,10.02
2023-05-19T02:23:36.255Z,10.05
2023-05-19T02:26:06.254Z,10.06
2023-05-19T02:28:36.791Z,10.14
2023-05-19T02:31:09.173Z,10.24
2023-05-19T02:33:43.119Z,10.11
2023-05-19T02:36:14.695Z,10.27
2023-05-19T02:38:44.599Z,9.98
2023-05-19T02:41:14.393Z,10.27
2023-05-19T02:43:44.218Z,10.26
2023-05-19T02:46:14.123Z,10.25
2023-05-19T02:48:46.723Z,10.26
2023-05-19T02:51:16.564Z,10.15
2023-05-19T02:53:46.491Z,10.05
2023-05-19T02:56:16.351Z,10.06
2023-05-19T02:58:46.201Z,9.80
2023-05-19T03:01:16.756Z,9.86
2023-05-19T03:03:49.390Z,9.90
2023-05-19T03:06:19.370Z,9.93
2023-05-19T03:08:49.187Z,9.69
2023-05-19T03:11:19.089Z,9.40
2023-05-19T03:13:49.061Z,9.86
2023-05-19T03:16:19.283Z,9.92
2023-05-19T03:18:52.481Z,9.89
2023-05-19T03:21:22.327Z,9.52
2023-05-19T03:23:52.119Z,9.88
2023-05-19T03:26:23.274Z,9.88
2023-05-19T03:28:53.255Z,9.93
2023-05-19T03:31:23.134Z,10.05
2023-05-19T03:33:55.819Z,10.15
2023-05-19T03:36:26.423Z,10.14
2023-05-19T03:38:56.371Z,10.14
2023-05-19T03:41:26.526Z,10.06
2023-05-19T03:43:56.374Z,10.10
2023-05-19T03:46:26.535Z,9.93
2023-05-19T03:49:15.256Z,9.94
2023-05-19T03:52:04.137Z,9.84
2023-05-19T03:54:57.904Z,9.88
2023-05-19T03:57:27.856Z,9.96
2023-05-19T03:59:57.678Z,9.94
2023-05-19T04:02:27.667Z,10.04
2023-05-19T04:05:00.264Z,10.11
2023-05-19T04:07:30.056Z,9.95
2023-05-19T04:10:00.308Z,9.99
2023-05-19T04:12:31.314Z,10.11
2023-05-19T04:15:01.284Z,10.05
2023-05-19T04:17:31.835Z,10.00
2023-05-19T04:20:04.998Z,10.16
2023-05-19T04:22:34.918Z,10.12
2023-05-19T04:25:05.172Z,10.09
2023-05-19T04:27:36.864Z,10.01
2023-05-19T04:30:07.244Z,10.05
2023-05-19T04:32:37.741Z,10.19
2023-05-19T04:35:13.860Z,9.83
2023-05-19T04:37:46.162Z,10.20
2023-05-19T04:40:17.563Z,10.08
2023-05-19T04:42:49.966Z,10.30
2023-05-19T04:45:21.195Z,10.35
2023-05-19T04:47:58.781Z,10.25
2023-05-19T04:50:33.065Z,10.52
2023-05-19T04:53:03.582Z,10.56
2023-05-19T04:55:34.437Z,10.52
2023-05-19T04:58:04.539Z,10.63
2023-05-19T05:00:36.035Z,10.76
2023-05-19T05:03:09.456Z,10.84
2023-05-19T05:05:41.931Z,10.83
2023-05-19T05:08:15.547Z,10.78
2023-05-19T05:10:46.495Z,10.87
2023-05-19T05:13:16.997Z,11.07
2023-05-19T05:15:47.520Z,11.00
2023-05-19T05:18:18.959Z,11.11
2023-05-19T05:20:52.079Z,11.20
2023-05-19T05:23:23.126Z,11.30
2023-05-19T05:25:54.399Z,11.41
2023-05-19T05:28:25.445Z,11.49
2023-05-19T05:30:57.554Z,11.53
2023-05-19T05:33:27.873Z,11.29
2023-05-19T05:36:00.404Z,11.15
2023-05-19T05:38:31.719Z,11.33
2023-05-19T05:41:03.294Z,11.66
2023-05-19T05:43:34.107Z,11.64
2023-05-19T05:46:06.580Z,11.90
2023-05-19T05:48:37.376Z,11.87
2023-05-19T05:51:11.460Z,12.23
2023-05-19T05:53:45.798Z,12.24
2023-05-19T05:56:17.922Z,12.44
2023-05-19T05:58:53.939Z,12.78
2023-05-19T06:01:24.639Z,12.63
2023-05-19T06:03:55.438Z,13.19
2023-05-19T06:06:30.079Z,13.30
2023-05-19T06:08:59.992Z,13.43
2023-05-19T06:11:31.409Z,13.81
2023-05-19T06:14:02.322Z,13.67
2023-05-19T06:16:50.933Z,13.58
2023-05-19T06:19:21.841Z,14.12
2023-05-19T06:21:54.459Z,14.44
2023-05-19T06:24:24.304Z,14.57
2023-05-19T06:26:54.143Z,14.36
2023-05-19T06:29:24.082Z,14.58
2023-05-19T06:31:56.480Z,14.76
2023-05-19T06:34:27.094Z,14.74
2023-05-19T06:36:59.667Z,14.54
2023-05-19T06:39:30.240Z,14.56
2023-05-19T06:42:00.170Z,14.82
2023-05-19T06:44:49.925Z,14.98
2023-05-19T06:47:20.288Z,14.99
2023-05-19T06:49:55.594Z,15.23
2023-05-19T06:52:31.438Z,15.40
2023-05-19T06:55:02.781Z,15.55
2023-05-19T06:57:34.172Z,15.50
2023-05-19T07:00:05.948Z,15.18
2023-05-19T07:02:35.976Z,15.25
2023-05-19T07:05:08.366Z,15.31
2023-05-19T07:07:41.973Z,15.34
2023-05-19T07:10:15.916Z,15.44
2023-05-19T07:12:46.423Z,15.40
2023-05-19T07:15:20.484Z,15.30
2023-05-19T07:17:51.158Z,15.51
2023-05-19T07:20:21.493Z,15.66
2023-05-19T07:22:54.072Z,15.65
2023-05-19T07:25:23.974Z,15.71
2023-05-19T07:27:53.775Z,15.63
2023-05-19T07:30:23.663Z,15.66
2023-05-19T07:32:53.515Z,15.93
2023-05-19T07:35:24.701Z,16.51
2023-05-19T07:37:57.147Z,16.78
2023-05-19T07:40:27.094Z,16.58
2023-05-19T07:42:56.949Z,16.70
2023-05-19T07:45:26.828Z,16.80
2023-05-19T07:47:56.822Z,17.02
2023-05-19T07:50:26.983Z,16.89
2023-05-19T07:52:59.453Z,17.04
2023-05-19T07:55:29.389Z,17.33
2023-05-19T07:57:59.233Z,17.45
2023-05-19T08:00:29.404Z,17.32
2023-05-19T08:03:00.096Z,17.77
2023-05-19T08:05:30.064Z,17.69
2023-05-19T08:08:02.895Z,17.67
2023-05-19T08:10:32.965Z,17.48
2023-05-19T08:13:02.994Z,17.83
2023-05-19T08:15:32.919Z,17.71
2023-05-19T08:18:03.507Z,18.08
2023-05-19T08:20:34.381Z,18.14
2023-05-19T08:23:07.422Z,18.14
2023-05-19T08:25:37.189Z,18.43
2023-05-19T08:28:07.342Z,18.61
2023-05-19T08:30:37.164Z,18.67
2023-05-19T08:33:07.307Z,18.91
2023-05-19T08:35:38.158Z,18.68
2023-05-19T08:38:11.302Z,18.83
2023-05-19T08:40:44.462Z,18.56
2023-05-19T08:43:14.789Z,18.58
2023-05-19T08:45:48.409Z,18.91
2023-05-19T08:48:20.933Z,18.94
2023-05-19T08:50:59.501Z,18.83
2023-05-19T08:53:39.210Z,18.66
2023-05-19T08:56:14.563Z,18.42
2023-05-19T08:58:45.283Z,18.61
2023-05-19T09:01:17.441Z,18.58
2023-05-19T09:03:50.202Z,18.72
2023-05-19T09:06:20.396Z,18.69
2023-05-19T09:08:52.808Z,18.74
2023-05-19T09:11:22.754Z,19.02
2023-05-19T09:13:53.156Z,18.91
2023-05-19T09:16:23.882Z,19.16
2023-05-19T09:18:58.217Z,18.97
2023-05-19T09:21:33.244Z,18.81
2023-05-19T09:24:10.836Z,18.76
2023-05-19T09:26:42.095Z,18.96
2023-05-19T09:29:15.710Z,19.11
2023-05-19T09:31:52.071Z,18.79
2023-05-19T09:34:22.478Z,18.91
2023-05-19T09:36:53.827Z,18.95
2023-05-19T09:39:26.949Z,18.94
2023-05-19T09:41:58.720Z,19.08
2023-05-19T09:44:31.476Z,19.06
2023-05-19T09:47:02.439Z,19.23
2023-05-19T09:49:33.298Z,19.34
2023-05-19T09:52:06.042Z,19.17
2023-05-19T09:54:38.490Z,19.40
2023-05-19T09:57:09.610Z,19.34
2023-05-19T09:59:39.943Z,19.33
2023-05-19T10:02:17.993Z,19.51
2023-05-19T10:04:49.282Z,19.52
2023-05-19T10:07:20.446Z,19.42
2023-05-19T10:09:54.346Z,19.90
2023-05-19T10:12:25.873Z,19.72
2023-05-19T10:14:57.201Z,19.83
2023-05-19T10:17:28.887Z,19.91
2023-05-19T10:19:58.727Z,19.84
2023-05-19T10:22:28.659Z,19.81
2023-05-19T10:25:01.306Z,20.04
2023-05-19T10:27:33.499Z,19.96
2023-05-19T10:30:10.820Z,20.11
2023-05-19T10:32:44.785Z,19.62
2023-05-19T10:35:37.686Z,19.41
2023-05-19T10:38:19.378Z,19.32
2023-05-19T10:41:02.394Z,19.66
2023-05-19T10:43:47.457Z,19.74
2023-05-19T10:46:22.735Z,19.94
2023-05-19T10:48:52.976Z,20.50
2023-05-19T10:51:22.869Z,20.81
2023-05-19T10:53:54.325Z,20.97
2023-05-19T10:56:36.663Z,21.02
2023-05-19T10:59:06.744Z,20.96
2023-05-19T11:01:39.121Z,20.98
2023-05-19T11:04:12.406Z,21.18
2023-05-19T11:06:43.107Z,21.03
2023-05-19T11:09:16.304Z,21.29
2023-05-19T11:11:51.009Z,21.39
2023-05-19T11:14:23.193Z,21.40
2023-05-19T11:16:54.902Z,21.54
2023-05-19T11:19:30.607Z,21.58
2023-05-19T11:22:10.326Z,21.71
2023-05-19T11:24:41.434Z,21.15
2023-05-19T11:27:29.024Z,21.43
2023-05-19T11:30:00.283Z,21.24
2023-05-19T11:32:32.053Z,21.57
2023-05-19T11:35:03.684Z,21.65
2023-05-19T11:37:35.987Z,21.72
2023-05-19T11:40:07.654Z,21.78
2023-05-19T11:42:40.087Z,21.85
2023-05-19T11:45:11.807Z,22.17
2023-05-19T11:47:57.193Z,21.89
2023-05-19T11:50:31.838Z,21.77
2023-05-19T11:53:04.038Z,21.62
2023-05-19T11:55:34.457Z,21.57
2023-05-19T11:58:07.392Z,21.96
2023-05-19T12:00:40.460Z,22.20
2023-05-19T12:03:11.734Z,22.19
2023-05-19T12:05:44.379Z,22.12
2023-05-19T12:08:14.701Z,22.25
2023-05-19T12:10:44.669Z,22.17
2023-05-19T12:13:17.816Z,22.01
2023-05-19T12:15:47.732Z,21.85
2023-05-19T12:18:17.557Z,22.34
2023-05-19T12:20:47.653Z,22.38
2023-05-19T12:23:17.701Z,22.33
2023-05-19T12:25:47.636Z,22.54
2023-05-19T12:28:20.015Z,22.76
2023-05-19T12:30:52.311Z,22.67
2023-05-19T12:33:22.996Z,22.56
2023-05-19T12:35:53.233Z,22.08
2023-05-19T12:38:23.409Z,21.69
2023-05-19T12:40:53.808Z,21.34
2023-05-19T12:43:26.930Z,21.13
2023-05-19T12:45:56.842Z,20.79
2023-05-19T12:48:26.704Z,20.81
2023-05-19T12:50:57.018Z,20.69
2023-05-19T12:53:29.745Z,20.73
2023-05-19T12:55:59.568Z,20.82
2023-05-19T12:58:31.950Z,21.12
2023-05-19T13:01:02.587Z,21.58
2023-05-19T13:03:32.481Z,21.59
2023-05-19T13:06:02.404Z,21.52
2023-05-19T13:08:32.155Z,21.64
2023-05-19T13:11:02.055Z,21.78
2023-05-19T13:13:35.485Z,21.95
2023-05-19T13:16:05.407Z,21.94
2023-05-19T13:18:37.944Z,21.83
2023-05-19T13:21:08.425Z,21.81
2023-05-19T13:23:38.245Z,21.87
2023-05-19T13:26:08.127Z,21.94
2023-05-19T13:28:40.533Z,21.91
2023-05-19T13:31:10.428Z,21.31
2023-05-19T13:33:40.266Z,21.44
2023-05-19T13:36:10.451Z,21.28
2023-05-19T13:38:42.033Z,21.34
2023-05-19T13:41:13.695Z,21.05
2023-05-19T13:43:46.487Z,20.91
2023-05-19T13:46:16.444Z,20.77
2023-05-19T13:48:46.435Z,20.61
2023-05-19T13:51:16.341Z,20.47
2023-05-19T13:53:46.163Z,20.66
2023-05-19T13:56:16.006Z,21.04
2023-05-19T13:58:48.402Z,21.44
2023-05-19T14:01:18.199Z,21.71
2023-05-19T14:03:48.489Z,21.77
2023-05-19T14:06:18.460Z,21.40
2023-05-19T14:08:48.708Z,21.14
2023-05-19T14:11:21.914Z,20.95
2023-05-19T14:13:54.453Z,20.89
2023-05-19T14:16:26.611Z,21.18
2023-05-19T14:18:56.493Z,21.59
2023-05-19T14:21:26.377Z,21.81
2023-05-19T14:23:56.244Z,21.80
2023-05-19T14:26:28.636Z,21.69
2023-05-19T14:29:02.595Z,21.41
2023-05-19T14:31:32.976Z,21.36
2023-05-19T14:34:02.932Z,21.58
2023-05-19T14:36:34.167Z,21.37
2023-05-19T14:39:04.170Z,21.71
2023-05-19T14:41:33.985Z,21.89
2023-05-19T14:44:06.685Z,21.94
2023-05-19T14:46:36.935Z,21.98
2023-05-19T14:49:06.880Z,21.97
2023-05-19T14:51:36.698Z,21.82
2023-05-19T14:54:06.737Z,21.61
2023-05-19T14:56:36.589Z,21.38
2023-05-19T14:59:09.011Z,21.10
2023-05-19T15:01:38.854Z,20.80
2023-05-19T15:04:08.795Z,21.02
2023-05-19T15:06:38.689Z,21.01
2023-05-19T15:09:08.539Z,21.30
2023-05-19T15:11:38.499Z,21.35
2023-05-19T15:14:10.932Z,21.27
2023-05-19T15:16:40.773Z,21.26
2023-05-19T15:19:10.677Z,20.65
2023-05-19T15:21:40.596Z,20.72
2023-05-19T15:24:10.624Z,21.06
2023-05-19T15:26:40.703Z,21.23
2023-05-19T15:29:13.120Z,21.26
2023-05-19T15:31:43.206Z,21.25
2023-05-19T15:34:13.134Z,21.38
2023-05-19T15:36:43.191Z,21.29
2023-05-19T15:39:13.006Z,21.57
2023-05-19T15:41:42.857Z,21.44
2023-05-19T15:44:15.250Z,21.45
2023-05-19T15:46:45.177Z,21.37
2023-05-19T15:49:15.025Z,21.45
2023-05-19T15:51:45.081Z,21.66
2023-05-19T15:54:14.969Z,21.80
2023-05-19T15:56:44.771Z,21.98
2023-05-19T15:59:17.209Z,21.96
2023-05-19T16:01:47.093Z,21.83
2023-05-19T16:04:17.965Z,21.69
2023-05-19T16:06:47.862Z,21.74
2023-05-19T16:09:17.766Z,21.77
2023-05-19T16:11:47.583Z,21.53
2023-05-19T16:14:20.049Z,21.40
2023-05-19T16:16:49.950Z,21.61
2023-05-19T16:19:19.912Z,21.69
2023-05-19T16:21:50.087Z,21.65
2023-05-19T16:24:19.914Z,21.57
2023-05-19T16:26:49.722Z,21.69
2023-05-19T16:29:22.153Z,21.53
2023-05-19T16:31:52.140Z,21.59
2023-05-19T16:34:22.039Z,21.57
2023-05-19T16:36:51.860Z,21.43
2023-05-19T16:39:21.726Z,21.42
2023-05-19T16:41:52.977Z,21.54
2023-05-19T16:44:25.835Z,21.72
2023-05-19T16:46:55.699Z,21.55
2023-05-19T16:49:25.557Z,21.51
2023-05-19T16:51:56.029Z,21.75
2023-05-19T16:54:26.062Z,21.89
2023-05-19T16:56:55.891Z,21.89
2023-05-19T16:59:28.456Z,21.87
2023-05-19T17:01:58.925Z,21.68
2023-05-19T17:04:30.738Z,21.56
2023-05-19T17:07:01.065Z,21.39
2023-05-19T17:09:31.493Z,21.37
2023-05-19T17:12:01.320Z,21.52
2023-05-19T17:14:33.722Z,21.44
2023-05-19T17:17:03.663Z,21.45
2023-05-19T17:19:33.643Z,21.31
2023-05-19T17:22:04.039Z,21.33
2023-05-19T17:24:33.890Z,20.92
2023-05-19T17:27:03.852Z,20.67
2023-05-19T17:29:36.892Z,20.75
2023-05-19T17:32:07.569Z,20.78
2023-05-19T17:34:37.424Z,20.81
2023-05-19T17:37:07.774Z,20.94
2023-05-19T17:39:37.590Z,20.90
2023-05-19T17:42:08.266Z,20.99
2023-05-19T17:44:41.539Z,21.11
2023-05-19T17:47:11.433Z,21.11
2023-05-19T17:49:41.598Z,21.19
2023-05-19T17:52:12.881Z,21.07
2023-05-19T17:54:43.073Z,21.12
2023-05-19T17:57:14.912Z,21.20
2023-05-19T17:59:48.105Z,21.13
2023-05-19T18:02:18.794Z,21.06
2023-05-19T18:04:49.414Z,21.17
2023-05-19T18:07:21.060Z,21.06
2023-05-19T18:09:52.392Z,20.97
2023-05-19T18:12:22.923Z,20.91
2023-05-19T18:14:55.369Z,20.50
2023-05-19T18:17:25.244Z,20.81
2023-05-19T18:19:55.094Z,20.81
2023-05-19T18:22:24.881Z,20.71
2023-05-19T18:24:54.795Z,20.69
2023-05-19T18:27:24.622Z,20.71
2023-05-19T18:29:57.043Z,20.53
2023-05-19T18:32:27.099Z,20.50
2023-05-19T18:34:56.937Z,20.29
2023-05-19T18:37:26.817Z,20.07
2023-05-19T18:39:56.657Z,20.09
2023-05-19T18:42:26.551Z,20.00
2023-05-19T18:44:59.034Z,19.85
2023-05-19T18:47:29.018Z,20.11
2023-05-19T18:49:59.096Z,20.05
2023-05-19T18:52:30.990Z,19.95
2023-05-19T18:55:01.346Z,20.06
2023-05-19T18:57:31.461Z,20.02
2023-05-19T19:00:04.472Z,20.02
2023-05-19T19:02:35.672Z,19.83
2023-05-19T19:05:09.635Z,19.80
2023-05-19T19:07:43.335Z,19.81
2023-05-19T19:10:15.323Z,19.58
2023-05-19T19:12:45.241Z,19.52
2023-05-19T19:15:17.715Z,19.18
2023-05-19T19:17:47.651Z,19.46
2023-05-19T19:20:17.598Z,19.42
2023-05-19T19:22:47.569Z,19.39
2023-05-19T19:25:17.592Z,19.24
2023-05-19T19:27:47.418Z,18.89
2023-05-19T19:30:20.168Z,19.20
2023-05-19T19:32:50.048Z,18.93
2023-05-19T19:35:20.156Z,18.85
2023-05-19T19:37:51.834Z,18.88
2023-05-19T19:40:21.882Z,18.86
2023-05-19T19:42:51.679Z,18.73
2023-05-19T19:45:24.108Z,18.86
2023-05-19T19:47:54.559Z,18.85
2023-05-19T19:50:24.477Z,18.80
2023-05-19T19:52:54.329Z,18.41
2023-05-19T19:55:24.248Z,18.56
2023-05-19T19:57:54.163Z,18.54
2023-05-19T20:00:27.001Z,18.39
2023-05-19T20:03:05.241Z,18.39
2023-05-19T20:05:36.132Z,18.49
2023-05-19T20:08:05.927Z,18.45
2023-05-19T20:10:35.929Z,18.59
2023-05-19T20:13:05.915Z,18.64
2023-05-19T20:15:38.438Z,18.54
2023-05-19T20:18:08.473Z,18.30
2023-05-19T20:20:38.459Z,18.35
2023-05-19T20:23:08.820Z,18.47
2023-05-19T20:25:57.850Z,18.53
2023-05-19T20:28:32.788Z,18.50
2023-05-19T20:31:05.325Z,18.48
2023-05-19T20:33:35.298Z,18.54
2023-05-19T20:36:05.256Z,18.55
2023-05-19T20:38:35.101Z,18.53
2023-05-19T20:41:04.976Z,18.59
2023-05-19T20:43:35.387Z,18.47
2023-05-19T20:46:07.896Z,18.36
2023-05-19T20:48:37.748Z,18.28
2023-05-19T20:51:07.903Z,18.27
2023-05-19T20:53:37.763Z,18.31
2023-05-19T20:56:10.612Z,18.23
2023-05-19T20:58:40.771Z,18.22
2023-05-19T21:01:13.210Z,18.26
2023-05-19T21:03:43.129Z,18.14
2023-05-19T21:06:13.034Z,18.14
2023-05-19T21:08:42.834Z,18.09
2023-05-19T21:11:12.661Z,18.22
2023-05-19T21:13:43.509Z,18.14
2023-05-19T21:16:15.945Z,18.20
2023-05-19T21:18:45.880Z,18.02
2023-05-19T21:21:15.773Z,18.04
2023-05-19T21:23:45.557Z,17.93
2023-05-19T21:26:15.595Z,17.97
2023-05-19T21:28:45.440Z,17.82
2023-05-19T21:31:18.126Z,17.90
2023-05-19T21:33:47.975Z,17.79
2023-05-19T21:36:18.462Z,17.70
2023-05-19T21:38:48.259Z,17.57
2023-05-19T21:41:18.209Z,17.38
2023-05-19T21:43:48.005Z,17.61
2023-05-19T21:46:20.544Z,17.63
2023-05-19T21:48:50.385Z,17.45
2023-05-19T21:51:20.258Z,17.52
2023-05-19T21:53:50.067Z,17.47
2023-05-19T21:56:19.886Z,17.39
2023-05-19T21:58:49.688Z,17.39
2023-05-19T22:01:22.471Z,17.44
2023-05-19T22:03:52.569Z,17.38
2023-05-19T22:06:22.477Z,17.31
2023-05-19T22:08:52.336Z,17.33
2023-05-19T22:11:22.155Z,17.15
2023-05-19T22:13:54.850Z,17.13
2023-05-19T22:16:27.301Z,17.06
2023-05-19T22:18:57.219Z,17.02
2023-05-19T22:21:27.201Z,16.82
2023-05-19T22:23:57.028Z,16.91
2023-05-19T22:26:27.420Z,16.89
2023-05-19T22:28:58.095Z,16.93
2023-05-19T22:31:31.332Z,16.75
2023-05-19T22:34:01.189Z,16.78
2023-05-19T22:36:31.392Z,16.56
2023-05-19T22:39:01.247Z,16.74
2023-05-19T22:41:31.112Z,16.48
2023-05-19T22:44:00.995Z,16.59
2023-05-19T22:46:34.338Z,16.41
2023-05-19T22:49:04.228Z,16.45
2023-05-19T22:51:34.143Z,16.56
2023-05-19T22:54:04.147Z,16.50
2023-05-19T22:56:34.008Z,16.46
2023-05-19T22:59:03.798Z,16.34
2023-05-19T23:01:36.473Z,16.58
2023-05-19T23:04:06.551Z,16.34
2023-05-19T23:06:36.396Z,16.58
2023-05-19T23:09:07.324Z,16.58
2023-05-19T23:11:37.175Z,16.48
2023-05-19T23:14:07.066Z,16.51
2023-05-19T23:16:39.534Z,16.34
2023-05-19T23:19:09.492Z,16.35
2023-05-19T23:21:39.318Z,16.20
2023-05-19T23:24:09.561Z,16.33
2023-05-19T23:26:39.413Z,16.06
2023-05-19T23:29:09.299Z,16.23
2023-05-19T23:31:41.832Z,16.37
2023-05-19T23:34:11.759Z,16.16
2023-05-19T23:36:41.621Z,16.24
2023-05-19T23:39:11.510Z,16.14
2023-05-19T23:41:41.445Z,16.10
2023-05-19T23:44:11.547Z,16.01
2023-05-19T23:46:43.992Z,15.65
2023-05-19T23:49:14.666Z,15.93
2023-05-19T23:51:44.511Z,16.04
2023-05-19T23:54:14.326Z,16.07
2023-05-19T23:56:44.221Z,16.03
2023-05-19T23:59:14.160Z,15.93
